Willis, Texas
Current Conditions -  °F | °C
As of 3:53 AM on Monday 22 Dec 2014 (Local Time) from KCXO Reporting Station
Haze Haze  
Wind Chill: 56°   Ceiling: 400
Heat Index: 56°   Visibility: 5mi
Dew Point: 55°   Wind: 8mph
Humidity: 97%   Direction: 150°SSE
Pressure: 29.79"   Gusts: NA
Location:  30.42°N, 95.48°W
Report Text: KCXO 220953Z AUTO 15007KT 5SM BR OVC004 13/13 A2979 RMK AO2 SLP085 T01330128
Loading
Personal Weather Stations






























Interactive Weather Map New forecast layout! Learn more

10-Day Weather Forecast

Advertisements
Track Severe Weather on mobile